Terminal Aerodrome Forecast
Issued by NWS

Home | Current Version | Previous Version | Text Only | Print | Product List | Glossary On
Versions: 1 2 3 4 5 6 7 8 9 10 11 12 13 14 15 16 17 18 19 20
088
FTUS43 KGRB 261137
TAFMTW
TAF
KMTW 261137Z 2612/2712 04011KT 4SM -DZ BR OVC004
      TEMPO 2612/2616 1SM -RA BR OVC002
     FM261600 03008KT 4SM -RA BR OVC005
     FM262300 35007KT 3SM -RA BR OVC004
     FM270400 34003KT 1SM BR OVC002=

USA.gov is the U.S. government's official web portal to all federal, state and local government web resources and services.